Time;durP1;ratioP1;P1;durP2;ratioP2;P2;SDS_P1;SDS_P2;PMS_P1;PMS_P2;Temp;Humidity;BMP_temperature;BMP_pressure;BME280_temperature;BME280_humidity;BME280_pressure;Samples;Min_cycle;Max_cycle;Signal;HPM_P1;HPM_P2
2023/10/19 00:00:50;;;;;;;0.80;0.80;;;10.90;88.00;;;;;;5096988;28;20028;-87
2023/10/19 00:03:18;;;;;;;1.00;0.77;;;10.80;87.90;;;;;;5096088;28;20038;-86
2023/10/19 00:05:48;;;;;;;1.00;0.90;;;10.90;88.00;;;;;;5117223;28;20101;-86
2023/10/19 00:08:17;;;;;;;1.17;0.80;;;10.90;88.00;;;;;;5084641;28;20058;-86
2023/10/19 00:10:47;;;;;;;0.80;0.80;;;10.90;88.10;;;;;;5101026;28;20052;-85
2023/10/19 00:13:14;;;;;;;0.80;0.80;;;11.10;88.20;;;;;;5041227;28;20080;-85
2023/10/19 00:15:48;;;;;;;0.90;0.88;;;10.90;88.20;;;;;;5042817;28;20040;-85
2023/10/19 00:18:24;;;;;;;1.55;0.90;;;11.00;88.30;;;;;;5047121;28;20957;-86
2023/10/19 00:20:59;;;;;;;1.08;0.90;;;11.00;88.20;;;;;;5070080;28;20048;-86
2023/10/19 00:23:29;;;;;;;1.13;0.90;;;11.00;88.30;;;;;;5045608;28;20155;-86
2023/10/19 00:25:57;;;;;;;1.27;0.95;;;11.10;88.40;;;;;;5076855;28;20051;-86
2023/10/19 00:28:25;;;;;;;1.13;0.90;;;11.10;88.40;;;;;;5061647;28;20502;-86
2023/10/19 00:30:59;;;;;;;1.17;0.85;;;11.10;88.40;;;;;;5045672;28;20048;-86
2023/10/19 00:33:28;;;;;;;0.75;0.73;;;11.10;88.40;;;;;;5027993;28;20055;-86
2023/10/19 00:36:12;;;;;;;0.80;0.80;;;11.10;88.50;;;;;;5060032;28;20049;-86
2023/10/19 00:38:40;;;;;;;0.70;0.70;;;11.10;88.50;;;;;;5028142;28;20049;-86
2023/10/19 00:41:11;;;;;;;1.45;0.93;;;11.20;88.60;;;;;;5059165;28;20496;-86
2023/10/19 00:43:43;;;;;;;0.85;0.75;;;11.20;88.70;;;;;;5069848;28;20069;-86
2023/10/19 00:46:20;;;;;;;;;;;11.20;88.70;;;;;;5095633;28;20047;-86
2023/10/19 00:48:53;;;;;;;0.85;0.80;;;11.20;88.60;;;;;;5082181;28;19911;-85
2023/10/19 00:54:08;;;;;;;1.27;0.90;;;11.20;88.70;;;;;;5120918;28;20071;-86
2023/10/19 00:56:35;;;;;;;1.10;0.80;;;11.20;88.70;;;;;;5098369;28;20062;-85
2023/10/19 00:59:13;;;;;;;0.82;0.70;;;11.30;88.80;;;;;;5095460;28;20044;-85
2023/10/19 01:01:43;;;;;;;1.38;1.00;;;11.30;88.90;;;;;;5112815;28;20044;-85
2023/10/19 01:04:14;;;;;;;0.95;0.73;;;11.30;88.90;;;;;;5112600;28;20066;-84
2023/10/19 01:06:44;;;;;;;1.13;0.90;;;11.30;89.00;;;;;;5076135;28;20057;-86
2023/10/19 01:09:14;;;;;;;1.45;0.95;;;11.30;89.00;;;;;;5080169;28;20036;-85
2023/10/19 01:11:45;;;;;;;1.20;0.85;;;11.30;89.10;;;;;;5096594;28;20063;-85
2023/10/19 01:14:21;;;;;;;1.08;0.90;;;11.30;89.10;;;;;;5097868;28;20063;-85
2023/10/19 01:16:49;;;;;;;1.25;0.93;;;11.40;89.20;;;;;;5099242;28;20039;-85
2023/10/19 01:19:18;;;;;;;1.00;0.82;;;11.30;89.20;;;;;;5095645;28;20046;-85
2023/10/19 01:21:51;;;;;;;2.42;1.23;;;11.30;89.20;;;;;;5080666;28;20049;-85
2023/10/19 01:24:44;;;;;;;0.80;0.80;;;11.40;89.30;;;;;;5095653;28;20048;-85
2023/10/19 01:27:10;;;;;;;1.30;1.00;;;11.40;89.30;;;;;;5112684;28;20050;-86
2023/10/19 01:29:38;;;;;;;1.98;1.27;;;11.40;89.30;;;;;;5098422;28;20043;-86
2023/10/19 01:32:08;;;;;;;1.55;1.00;;;11.50;89.40;;;;;;5080346;28;20055;-85
2023/10/19 01:34:35;;;;;;;1.43;1.00;;;11.40;89.40;;;;;;5111587;28;20032;-85
2023/10/19 01:37:03;;;;;;;1.65;0.95;;;11.50;89.50;;;;;;5114034;28;20491;-86
2023/10/19 01:39:35;;;;;;;1.20;0.82;;;11.50;89.50;;;;;;5080157;28;20071;-85
2023/10/19 01:42:01;;;;;;;1.33;1.00;;;11.50;89.50;;;;;;5093223;28;20055;-85
2023/10/19 01:44:27;;;;;;;1.48;1.05;;;11.50;89.50;;;;;;5078876;28;20039;-86
2023/10/19 01:46:53;;;;;;;1.38;1.00;;;11.60;89.60;;;;;;5093420;28;20044;-85
2023/10/19 01:49:26;;;;;;;1.70;1.02;;;11.80;90.10;;;;;;5112073;28;20537;-85
2023/10/19 01:51:54;;;;;;;1.55;0.80;;;11.60;89.60;;;;;;5076940;28;20046;-86
2023/10/19 01:54:23;;;;;;;1.55;1.10;;;11.60;89.60;;;;;;5110653;28;20054;-86
2023/10/19 01:56:56;;;;;;;1.60;1.20;;;11.70;89.70;;;;;;5094731;28;20039;-87
2023/10/19 01:59:27;;;;;;;1.58;1.10;;;11.70;89.80;;;;;;5096053;28;20053;-85
2023/10/19 02:01:54;;;;;;;1.35;1.17;;;11.80;89.80;;;;;;5078086;28;20543;-85
2023/10/19 02:04:21;;;;;;;1.80;1.10;;;11.80;89.80;;;;;;5110069;28;20028;-85
2023/10/19 02:06:48;;;;;;;1.40;1.00;;;11.80;89.80;;;;;;5096829;28;20062;-84
2023/10/19 02:11:56;;;;;;;1.17;1.08;;;11.90;89.80;;;;;;5105656;28;20051;-83
2023/10/19 02:14:25;;;;;;;1.90;1.23;;;11.90;89.80;;;;;;5116119;28;20039;-84
2023/10/19 02:16:53;;;;;;;1.83;1.20;;;11.90;89.80;;;;;;5124842;28;20044;-82
2023/10/19 02:19:20;;;;;;;1.73;1.20;;;12.00;89.80;;;;;;5117967;28;20043;-84
2023/10/19 02:21:52;;;;;;;1.70;1.20;;;12.00;89.60;;;;;;5116331;28;20024;-83
2023/10/19 02:24:18;;;;;;;1.23;1.05;;;12.10;89.60;;;;;;5117728;28;20043;-83
2023/10/19 02:26:44;;;;;;;2.05;1.10;;;12.10;89.60;;;;;;5099136;28;20704;-84
2023/10/19 02:29:12;;;;;;;0.80;0.80;;;12.00;89.60;;;;;;5084310;28;20056;-84
2023/10/19 02:31:39;;;;;;;1.90;1.00;;;12.10;89.70;;;;;;5080500;28;20453;-84
2023/10/19 02:34:09;;;;;;;1.58;1.00;;;12.10;89.80;;;;;;5083284;28;20044;-84
2023/10/19 02:36:37;;;;;;;0.70;0.70;;;12.10;89.90;;;;;;5096866;28;20046;-84
2023/10/19 02:39:09;;;;;;;1.00;0.90;;;12.20;89.90;;;;;;5117915;28;20044;-83
2023/10/19 02:41:41;;;;;;;1.25;0.90;;;12.20;90.00;;;;;;5088205;28;20071;-84
2023/10/19 02:44:09;;;;;;;1.70;1.10;;;12.20;90.00;;;;;;5098359;28;20047;-83
2023/10/19 02:46:38;;;;;;;1.05;0.90;;;12.20;90.00;;;;;;5095902;28;20130;-84
2023/10/19 02:49:11;;;;;;;0.70;0.70;;;12.30;90.40;;;;;;5097061;28;20091;-84
2023/10/19 02:51:38;;;;;;;0.82;0.65;;;12.20;90.10;;;;;;5094648;28;20474;-84
2023/10/19 02:54:06;;;;;;;1.13;0.98;;;12.30;90.10;;;;;;5080886;28;20043;-84
2023/10/19 02:56:35;;;;;;;0.85;0.63;;;12.30;90.10;;;;;;5097492;28;20526;-84
2023/10/19 02:59:03;;;;;;;0.93;0.70;;;12.30;90.40;;;;;;5096577;28;20490;-84
2023/10/19 03:01:31;;;;;;;1.00;0.88;;;12.40;90.20;;;;;;5114477;28;20372;-84
2023/10/19 03:04:00;;;;;;;0.90;0.65;;;12.30;90.20;;;;;;5095116;28;20082;-83
2023/10/19 03:06:35;;;;;;;1.00;0.85;;;12.40;90.30;;;;;;5116499;28;20028;-84
2023/10/19 03:09:13;;;;;;;0.85;0.85;;;12.50;90.30;;;;;;5119328;28;20407;-84
2023/10/19 03:11:41;;;;;;;1.25;0.98;;;12.60;90.30;;;;;;5087785;28;20063;-84
2023/10/19 03:14:09;;;;;;;0.80;0.70;;;12.70;90.20;;;;;;5104395;28;20036;-83
2023/10/19 03:16:36;;;;;;;1.77;1.00;;;12.80;90.20;;;;;;5086623;28;20048;-83
2023/10/19 03:19:03;;;;;;;1.02;0.82;;;12.80;90.10;;;;;;5116804;28;20066;-83
2023/10/19 03:21:36;;;;;;;0.70;0.70;;;12.90;90.10;;;;;;5121805;28;20031;-83
2023/10/19 03:24:05;;;;;;;1.52;0.90;;;13.00;90.10;;;;;;5120494;28;20395;-84
2023/10/19 03:26:31;;;;;;;1.15;0.88;;;13.10;90.10;;;;;;5107825;28;20031;-84
2023/10/19 03:29:03;;;;;;;0.77;0.70;;;13.20;90.10;;;;;;5104486;28;20046;-83
2023/10/19 03:31:29;;;;;;;1.15;0.90;;;13.20;90.10;;;;;;5123743;28;20093;-84
2023/10/19 03:33:55;;;;;;;0.75;0.75;;;13.20;90.10;;;;;;5109963;28;20035;-84
2023/10/19 03:36:22;;;;;;;0.95;0.85;;;13.30;90.10;;;;;;5049251;28;20936;-83
2023/10/19 03:38:50;;;;;;;1.42;0.90;;;13.30;90.10;;;;;;5068351;28;20496;-83
2023/10/19 03:41:21;;;;;;;1.55;0.90;;;13.40;90.10;;;;;;5071713;28;20100;-83
2023/10/19 03:43:48;;;;;;;0.55;0.50;;;13.40;90.10;;;;;;5058130;28;20025;-84
2023/10/19 03:46:22;;;;;;;0.60;0.50;;;13.50;90.20;;;;;;5070041;28;20052;-84
2023/10/19 03:48:48;;;;;;;0.63;0.55;;;13.50;90.20;;;;;;5082974;28;20036;-83
2023/10/19 03:51:14;;;;;;;0.70;0.50;;;13.50;90.20;;;;;;5045713;28;20047;-84
2023/10/19 03:53:46;;;;;;;0.40;0.40;;;13.60;90.60;;;;;;5060450;28;20048;-83
2023/10/19 03:56:12;;;;;;;1.25;0.47;;;13.50;90.20;;;;;;5060327;28;20032;-83
2023/10/19 03:58:40;;;;;;;1.77;0.47;;;13.60;90.30;;;;;;5039642;28;20071;-83
2023/10/19 04:01:07;;;;;;;0.50;0.50;;;13.60;90.30;;;;;;5071996;28;20136;-83
2023/10/19 04:03:34;;;;;;;0.65;0.50;;;13.60;90.30;;;;;;5054348;28;20036;-83
2023/10/19 04:06:03;;;;;;;0.50;0.50;;;13.60;90.30;;;;;;5055232;28;20431;-83
2023/10/19 04:08:34;;;;;;;0.40;0.40;;;13.60;90.60;;;;;;5093531;28;20032;-83
2023/10/19 04:11:26;;;;;;;0.43;0.40;;;13.60;90.70;;;;;;5095567;28;20040;-83
2023/10/19 04:13:46;;;;;;;0.45;0.45;;;13.60;90.50;;;;;;5113628;28;20043;-84
2023/10/19 04:16:12;;;;;;;0.50;0.50;;;13.60;90.60;;;;;;5113880;28;20085;-83
2023/10/19 04:18:43;;;;;;;0.40;0.40;;;13.50;90.60;;;;;;5095043;28;20071;-84
2023/10/19 04:21:10;;;;;;;0.70;0.70;;;13.50;90.60;;;;;;5095119;28;20538;-83
2023/10/19 04:23:36;;;;;;;0.60;0.50;;;13.50;90.70;;;;;;5078297;28;20168;-84
2023/10/19 04:26:05;;;;;;;0.90;0.60;;;13.40;90.80;;;;;;5093217;28;20086;-84
2023/10/19 04:28:38;;;;;;;0.70;0.70;;;13.40;90.80;;;;;;5094670;28;20380;-84
2023/10/19 04:31:06;;;;;;;0.60;0.60;;;13.40;90.80;;;;;;5094980;28;20047;-83
2023/10/19 04:33:33;;;;;;;0.57;0.55;;;13.40;90.90;;;;;;5110658;28;20039;-83
2023/10/19 04:36:00;;;;;;;1.02;0.70;;;13.40;90.90;;;;;;5095024;28;20084;-83
2023/10/19 04:38:30;;;;;;;0.57;0.55;;;13.30;90.90;;;;;;5077780;28;20031;-84
2023/10/19 04:41:08;;;;;;;0.52;0.52;;;13.40;91.00;;;;;;5110057;28;20162;-84
2023/10/19 04:43:38;;;;;;;0.57;0.57;;;13.40;91.00;;;;;;5093147;28;20091;-83
2023/10/19 04:46:10;;;;;;;0.70;0.70;;;13.40;91.00;;;;;;5112625;28;20040;-84
2023/10/19 04:48:39;;;;;;;0.65;0.60;;;13.40;91.00;;;;;;5113728;28;20042;-83
2023/10/19 04:51:07;;;;;;;0.70;0.60;;;13.40;91.00;;;;;;5115015;28;20054;-83
2023/10/19 04:53:33;;;;;;;0.85;0.73;;;13.40;91.00;;;;;;5095114;28;20057;-84
2023/10/19 04:56:03;;;;;;;0.60;0.60;;;13.40;91.00;;;;;;5111831;28;20044;-84
2023/10/19 04:58:29;;;;;;;1.33;0.70;;;13.50;91.00;;;;;;5109983;28;20040;-83
2023/10/19 05:00:55;;;;;;;0.40;0.40;;;13.40;91.00;;;;;;5110408;28;20047;-84
2023/10/19 05:03:21;;;;;;;0.40;0.40;;;13.40;91.00;;;;;;5112409;28;20077;-83
2023/10/19 05:05:47;;;;;;;0.47;0.47;;;13.40;91.00;;;;;;5094243;28;20040;-83
2023/10/19 05:08:12;;;;;;;0.75;0.52;;;13.40;91.00;;;;;;5094370;28;20031;-83
2023/10/19 05:10:38;;;;;;;0.68;0.68;;;13.30;91.10;;;;;;5077630;28;20032;-82
2023/10/19 05:13:04;;;;;;;1.10;0.70;;;13.30;91.10;;;;;;5112518;28;20071;-83
2023/10/19 05:15:30;;;;;;;1.02;0.50;;;13.20;91.20;;;;;;5094283;28;20130;-83
2023/10/19 05:17:56;;;;;;;0.50;0.50;;;13.20;91.20;;;;;;5095782;28;20067;-83
2023/10/19 05:20:23;;;;;;;1.40;0.60;;;13.10;91.30;;;;;;5097373;28;20062;-83
2023/10/19 05:22:49;;;;;;;0.52;0.52;;;13.10;91.30;;;;;;5099865;28;20120;-82
2023/10/19 05:25:15;;;;;;;0.50;0.50;;;13.10;91.40;;;;;;5112783;28;20044;-79
2023/10/19 05:27:42;;;;;;;0.55;0.52;;;13.00;91.40;;;;;;5111311;28;20097;-79
2023/10/19 05:30:10;;;;;;;1.27;0.52;;;13.00;91.40;;;;;;5111274;28;20495;-79
2023/10/19 05:32:35;;;;;;;0.57;0.50;;;13.00;91.40;;;;;;5094168;28;20075;-79
2023/10/19 05:35:04;;;;;;;1.15;0.55;;;13.00;91.40;;;;;;5093383;28;20519;-79
2023/10/19 05:37:30;;;;;;;0.73;0.60;;;13.00;91.40;;;;;;5111548;28;20118;-79
2023/10/19 05:39:56;;;;;;;0.50;0.50;;;13.00;91.40;;;;;;5094668;28;20052;-79
2023/10/19 05:42:22;;;;;;;0.50;0.47;;;13.00;91.40;;;;;;5093814;28;20044;-79
2023/10/19 05:44:48;;;;;;;0.65;0.63;;;13.00;91.50;;;;;;5093697;28;20096;-79
2023/10/19 05:47:13;;;;;;;0.40;0.30;;;13.00;91.40;;;;;;5093769;28;20474;-79
2023/10/19 05:49:39;;;;;;;0.50;0.40;;;13.10;91.40;;;;;;5093866;28;20069;-80
2023/10/19 05:52:05;;;;;;;0.47;0.47;;;13.10;91.30;;;;;;5076574;28;20053;-80
2023/10/19 05:54:31;;;;;;;0.30;0.30;;;13.20;91.30;;;;;;5093574;28;20066;-80
2023/10/19 05:56:57;;;;;;;0.60;0.50;;;13.20;91.30;;;;;;5076869;28;20044;-80
2023/10/19 05:59:26;;;;;;;1.30;0.40;;;13.30;91.30;;;;;;5076314;28;20043;-80
2023/10/19 06:01:52;;;;;;;0.40;0.40;;;13.30;91.30;;;;;;5093722;28;20499;-82
2023/10/19 06:04:18;;;;;;;0.50;0.50;;;13.20;91.30;;;;;;5094319;28;20036;-80
2023/10/19 06:06:43;;;;;;;0.75;0.30;;;13.30;91.30;;;;;;5093567;28;20099;-82
2023/10/19 06:09:09;;;;;;;0.40;0.40;;;13.30;91.30;;;;;;5072266;28;20051;-81
2023/10/19 06:11:42;;;;;;;0.50;0.50;;;13.40;91.30;;;;;;5073110;28;20042;-81
2023/10/19 06:14:07;;;;;;;0.77;0.55;;;13.40;91.30;;;;;;5032326;28;20116;-81
2023/10/19 06:16:34;;;;;;;0.65;0.45;;;13.40;91.20;;;;;;5016061;28;20049;-79
2023/10/19 06:19:00;;;;;;;0.40;0.40;;;13.40;91.20;;;;;;5016479;28;20068;-82
2023/10/19 06:21:25;;;;;;;0.40;0.40;;;13.50;91.30;;;;;;5032335;28;20128;-81
2023/10/19 06:23:53;;;;;;;0.40;0.40;;;13.50;91.30;;;;;;4999582;28;20136;-81
2023/10/19 06:26:19;;;;;;;0.35;0.35;;;13.60;91.20;;;;;;5049301;28;20072;-80
2023/10/19 06:28:45;;;;;;;0.77;0.43;;;13.60;91.20;;;;;;5049183;28;20095;-81
2023/10/19 06:31:11;;;;;;;0.50;0.35;;;13.60;91.10;;;;;;5009217;28;20081;-81
2023/10/19 06:33:39;;;;;;;0.40;0.40;;;13.70;91.20;;;;;;4976480;28;20050;-81
2023/10/19 06:36:07;;;;;;;0.55;0.40;;;13.70;91.10;;;;;;4961629;28;20577;-80
2023/10/19 06:38:32;;;;;;;0.40;0.40;;;13.80;91.10;;;;;;4976631;28;20117;-80
2023/10/19 06:41:00;;;;;;;0.80;0.45;;;13.80;91.10;;;;;;4992852;28;20046;-80
2023/10/19 06:43:28;;;;;;;1.08;0.50;;;13.80;91.10;;;;;;5009347;28;20559;-80
2023/10/19 06:45:55;;;;;;;0.85;0.40;;;13.90;91.10;;;;;;5045166;28;20048;-80
2023/10/19 06:48:21;;;;;;;0.85;0.40;;;13.90;91.10;;;;;;5052750;28;20052;-81
2023/10/19 06:50:47;;;;;;;0.40;0.40;;;13.90;91.00;;;;;;5035546;28;20423;-81
2023/10/19 06:53:12;;;;;;;0.20;0.20;;;14.00;91.10;;;;;;5051825;28;20032;-81
2023/10/19 06:55:39;;;;;;;0.82;0.45;;;14.00;91.10;;;;;;5051953;28;20029;-81
2023/10/19 06:58:05;;;;;;;0.50;0.40;;;14.00;91.10;;;;;;5052171;28;20434;-80
2023/10/19 07:00:31;;;;;;;0.60;0.40;;;14.00;91.10;;;;;;5069134;28;20045;-80
2023/10/19 07:03:00;;;;;;;0.88;0.50;;;14.00;91.20;;;;;;5086272;28;20041;-81
2023/10/19 07:05:29;;;;;;;0.30;0.30;;;14.00;91.10;;;;;;5112056;28;20161;-80
2023/10/19 07:07:56;;;;;;;0.57;0.47;;;14.10;91.10;;;;;;5096341;28;20456;-78
2023/10/19 07:10:23;;;;;;;0.35;0.35;;;14.10;91.10;;;;;;5094829;28;20036;-78
2023/10/19 07:12:51;;;;;;;0.50;0.40;;;14.10;91.10;;;;;;5115043;28;20122;-78
2023/10/19 07:15:19;;;;;;;0.40;0.40;;;14.20;91.20;;;;;;5096377;28;20047;-79
2023/10/19 07:17:46;;;;;;;0.68;0.57;;;14.20;91.20;;;;;;5114967;28;20079;-79
2023/10/19 07:22:52;;;;;;;0.40;0.40;;;14.20;91.20;;;;;;5071837;28;20052;-79
2023/10/19 07:25:21;;;;;;;1.20;0.50;;;14.20;91.20;;;;;;5055608;28;20051;-78
2023/10/19 07:27:48;;;;;;;0.57;0.40;;;14.30;91.20;;;;;;5054923;28;20073;-79
2023/10/19 07:30:16;;;;;;;0.32;0.30;;;14.20;91.20;;;;;;5054632;28;20044;-78
2023/10/19 07:32:42;;;;;;;0.35;0.35;;;14.30;91.20;;;;;;5038505;28;20139;-79
2023/10/19 07:35:08;;;;;;;0.40;0.40;;;14.30;91.20;;;;;;5054748;28;20040;-78
2023/10/19 07:37:35;;;;;;;0.73;0.30;;;14.30;91.10;;;;;;5037986;28;20036;-79
2023/10/19 07:40:05;;;;;;;1.65;0.30;;;14.40;91.20;;;;;;5054797;28;20272;-79
2023/10/19 07:42:32;;;;;;;0.73;0.40;;;14.40;91.20;;;;;;5054942;28;20118;-79
2023/10/19 07:44:59;;;;;;;0.30;0.30;;;14.40;91.20;;;;;;5038226;28;20020;-79
2023/10/19 07:47:25;;;;;;;1.40;0.40;;;14.40;91.20;;;;;;5072016;28;20033;-78
2023/10/19 07:49:52;;;;;;;0.90;0.40;;;14.50;91.20;;;;;;5055104;28;20044;-79
2023/10/19 07:52:18;;;;;;;0.55;0.43;;;14.50;91.20;;;;;;5093727;28;20040;-78
2023/10/19 07:54:45;;;;;;;0.45;0.45;;;14.50;91.10;;;;;;5095618;28;20111;-79
2023/10/19 07:57:12;;;;;;;0.40;0.40;;;14.60;91.10;;;;;;5096186;28;20039;-79
2023/10/19 07:59:38;;;;;;;0.40;0.30;;;14.60;91.10;;;;;;5112601;28;20047;-79
2023/10/19 08:02:04;;;;;;;1.80;0.52;;;14.70;91.10;;;;;;5113611;28;20051;-79
2023/10/19 08:04:30;;;;;;;0.35;0.35;;;14.70;91.10;;;;;;5095600;28;20499;-79
2023/10/19 08:06:57;;;;;;;1.73;0.40;;;14.70;91.00;;;;;;5095548;28;20035;-79
2023/10/19 08:09:24;;;;;;;0.55;0.30;;;14.70;91.00;;;;;;5112234;28;20067;-79
2023/10/19 08:11:55;;;;;;;0.45;0.40;;;14.70;91.00;;;;;;5094840;28;20087;-78
2023/10/19 08:14:24;;;;;;;;;;;14.80;91.10;;;;;;5096124;28;20097;-80
2023/10/19 08:16:50;;;;;;;0.45;0.30;;;14.80;91.00;;;;;;5078669;28;19920;-79
2023/10/19 08:19:16;;;;;;;1.50;0.47;;;14.80;91.00;;;;;;5093475;28;20563;-79
2023/10/19 08:21:42;;;;;;;0.52;0.50;;;14.80;91.00;;;;;;5112399;28;20047;-79
2023/10/19 08:24:13;;;;;;;0.40;0.30;;;14.80;91.00;;;;;;5095836;28;20059;-80
2023/10/19 08:26:41;;;;;;;1.35;0.38;;;14.90;91.00;;;;;;5095991;28;20448;-80
2023/10/19 08:29:12;;;;;;;1.23;0.57;;;14.90;91.00;;;;;;5094773;28;20034;-79
2023/10/19 08:31:40;;;;;;;1.00;0.45;;;14.90;91.00;;;;;;5112987;28;20042;-80
2023/10/19 08:34:06;;;;;;;2.08;0.50;;;14.90;91.00;;;;;;5095227;28;20070;-79
2023/10/19 08:36:32;;;;;;;0.85;0.30;;;14.90;91.10;;;;;;5093412;28;20513;-80
2023/10/19 08:38:58;;;;;;;0.40;0.40;;;15.00;91.10;;;;;;5094822;28;20142;-80
2023/10/19 08:41:24;;;;;;;0.63;0.57;;;15.00;91.10;;;;;;5112511;28;20471;-80
2023/10/19 08:43:50;;;;;;;0.75;0.40;;;15.00;91.10;;;;;;5110963;28;20033;-80
2023/10/19 08:46:17;;;;;;;1.00;0.38;;;15.00;91.10;;;;;;5093341;28;20028;-79
2023/10/19 08:48:42;;;;;;;0.20;0.20;;;15.00;91.10;;;;;;5078131;28;20136;-80
2023/10/19 08:51:10;;;;;;;0.35;0.35;;;15.10;91.10;;;;;;5076910;28;20048;-80
2023/10/19 08:53:40;;;;;;;0.47;0.40;;;15.10;91.10;;;;;;5110625;28;20483;-80
2023/10/19 08:56:07;;;;;;;0.75;0.47;;;15.10;91.10;;;;;;5110278;28;20077;-80
2023/10/19 08:58:34;;;;;;;0.40;0.30;;;15.10;91.10;;;;;;5094813;28;20127;-80
2023/10/19 09:01:06;;;;;;;0.60;0.40;;;15.20;91.20;;;;;;5094956;28;20039;-80
2023/10/19 09:03:33;;;;;;;0.43;0.30;;;15.20;91.20;;;;;;5095568;28;20044;-80
2023/10/19 09:06:12;;;;;;;0.30;0.30;;;15.30;91.20;;;;;;5112906;28;20039;-80
2023/10/19 09:08:38;;;;;;;0.47;0.30;;;15.30;91.20;;;;;;5053260;28;20396;-80
2023/10/19 09:11:08;;;;;;;0.20;0.20;;;15.30;91.10;;;;;;5036742;28;20044;-80
2023/10/19 09:13:47;;;;;;;1.38;0.35;;;15.40;91.20;;;;;;5070076;28;20044;-80
2023/10/19 09:16:15;;;;;;;0.20;0.20;;;15.40;91.20;;;;;;5053196;28;20048;-80
2023/10/19 09:18:41;;;;;;;0.20;0.20;;;15.40;91.40;;;;;;5053189;28;20155;-80
2023/10/19 09:21:07;;;;;;;0.40;0.40;;;15.50;91.20;;;;;;5036776;28;20044;-80
2023/10/19 09:23:34;;;;;;;0.68;0.50;;;15.50;91.20;;;;;;5052893;28;20392;-80
2023/10/19 09:26:05;;;;;;;0.60;0.30;;;15.50;91.20;;;;;;5035803;28;20086;-80
2023/10/19 09:28:33;;;;;;;0.20;0.20;;;15.50;91.20;;;;;;5037069;28;20036;-80
2023/10/19 09:31:00;;;;;;;0.60;0.40;;;15.50;91.20;;;;;;5036257;28;20587;-79
2023/10/19 09:33:27;;;;;;;0.30;0.30;;;15.60;91.20;;;;;;5052901;28;20392;-80
2023/10/19 09:35:56;;;;;;;0.95;0.38;;;15.60;91.30;;;;;;5038325;28;20473;-80
2023/10/19 09:38:22;;;;;;;0.43;0.30;;;15.70;91.20;;;;;;5054314;28;20477;-79
2023/10/19 09:40:50;;;;;;;0.30;0.30;;;15.80;91.20;;;;;;5109330;28;20060;-79
2023/10/19 09:43:24;;;;;;;1.17;0.50;;;15.90;91.20;;;;;;5093920;28;20116;-79
2023/10/19 09:45:53;;;;;;;0.50;0.50;;;15.80;91.10;;;;;;5111241;28;20054;-80
2023/10/19 09:48:19;;;;;;;0.38;0.38;;;15.90;91.10;;;;;;5091890;28;20466;-79
2023/10/19 09:50:54;;;;;;;0.63;0.30;;;15.90;91.00;;;;;;5111633;28;20039;-79
2023/10/19 09:53:23;;;;;;;0.68;0.40;;;16.00;91.10;;;;;;5110989;28;20097;-79
2023/10/19 09:55:51;;;;;;;0.82;0.52;;;16.10;91.10;;;;;;5094120;28;20075;-79
2023/10/19 09:58:21;;;;;;;0.40;0.40;;;16.10;91.20;;;;;;5093844;28;20054;-79
2023/10/19 10:00:51;;;;;;;0.38;0.38;;;16.20;91.10;;;;;;5093664;28;20403;-79
2023/10/19 10:03:48;;;;;;;0.52;0.43;;;16.30;91.00;;;;;;5093758;28;20040;-80
2023/10/19 10:06:16;;;;;;;0.63;0.50;;;16.30;91.00;;;;;;5093706;28;20439;-79
2023/10/19 10:08:44;;;;;;;0.30;0.30;;;16.30;91.00;;;;;;5093610;28;20032;-79
2023/10/19 10:11:16;;;;;;;0.40;0.40;;;16.30;91.00;;;;;;5109828;28;20033;-80
2023/10/19 10:13:45;;;;;;;1.13;0.55;;;16.30;91.00;;;;;;5075838;28;20040;-79
2023/10/19 10:16:14;;;;;;;1.17;0.57;;;16.30;91.10;;;;;;5109420;28;20475;-79
2023/10/19 10:18:41;;;;;;;0.70;0.50;;;16.30;91.10;;;;;;5077338;28;20394;-79
2023/10/19 10:21:12;;;;;;;0.55;0.50;;;16.40;91.10;;;;;;5093721;28;20051;-79
2023/10/19 10:23:52;;;;;;;0.38;0.30;;;16.30;91.10;;;;;;5112147;28;20058;-79
2023/10/19 10:26:20;;;;;;;0.68;0.60;;;16.50;91.20;;;;;;5093627;28;20395;-79
2023/10/19 10:28:48;;;;;;;0.57;0.47;;;16.50;91.10;;;;;;5091988;28;20476;-79
2023/10/19 10:31:20;;;;;;;0.98;0.60;;;16.60;91.10;;;;;;5076535;28;20038;-79
2023/10/19 10:33:51;;;;;;;1.30;0.70;;;16.60;91.00;;;;;;5111331;28;20487;-79
2023/10/19 10:36:18;;;;;;;1.25;0.50;;;16.70;91.00;;;;;;5093187;28;20039;-79
2023/10/19 10:38:45;;;;;;;0.65;0.40;;;16.70;90.90;;;;;;5095970;28;20039;-79
2023/10/19 10:41:11;;;;;;;2.25;0.70;;;16.80;90.90;;;;;;5096834;28;20112;-79
2023/10/19 10:43:53;;;;;;;0.80;0.50;;;16.90;90.90;;;;;;5113873;28;20048;-79
2023/10/19 10:46:21;;;;;;;0.82;0.50;;;16.90;90.90;;;;;;5113307;28;20563;-79
2023/10/19 10:48:48;;;;;;;1.48;0.50;;;17.00;90.80;;;;;;5095746;28;20534;-79
2023/10/19 10:51:16;;;;;;;0.45;0.45;;;17.00;90.80;;;;;;5095443;28;20048;-79
2023/10/19 10:53:42;;;;;;;0.50;0.50;;;17.00;90.80;;;;;;5096806;28;20119;-78
2023/10/19 10:56:08;;;;;;;0.52;0.50;;;17.00;90.80;;;;;;5114903;28;20082;-79
2023/10/19 10:58:33;;;;;;;0.95;0.50;;;17.10;90.80;;;;;;5115748;28;20032;-79
2023/10/19 11:01:00;;;;;;;1.70;0.50;;;17.10;90.90;;;;;;5115568;28;20054;-79
2023/10/19 11:03:29;;;;;;;0.73;0.38;;;17.10;90.90;;;;;;5116142;28;20069;-79
2023/10/19 11:06:02;;;;;;;0.80;0.40;;;17.10;90.90;;;;;;5097363;28;20130;-79
2023/10/19 11:08:28;;;;;;;0.40;0.40;;;17.10;90.90;;;;;;5097455;28;20028;-79
2023/10/19 11:10:54;;;;;;;1.13;0.47;;;17.20;90.90;;;;;;5099362;28;20080;-79
2023/10/19 11:13:25;;;;;;;1.52;0.70;;;17.30;91.00;;;;;;5119777;28;20032;-79
2023/10/19 11:15:56;;;;;;;0.73;0.50;;;17.10;90.90;;;;;;5098747;28;20060;-79
2023/10/19 11:18:29;;;;;;;;;;;17.30;90.90;;;;;;5118256;28;20179;-79
2023/10/19 11:20:59;;;;;;;1.05;0.60;;;17.40;90.90;;;;;;5100006;28;19911;-79
2023/10/19 11:23:45;;;;;;;0.55;0.45;;;17.50;90.80;;;;;;5122010;28;20513;-79
2023/10/19 11:26:14;;;;;;;1.08;0.50;;;17.60;90.70;;;;;;5126626;28;20112;-78
2023/10/19 11:28:47;;;;;;;0.63;0.40;;;17.70;90.60;;;;;;5124703;28;20135;-79
2023/10/19 11:31:15;;;;;;;0.68;0.40;;;17.70;90.60;;;;;;5114468;28;20039;-79
2023/10/19 11:33:43;;;;;;;0.75;0.50;;;17.70;90.50;;;;;;5123532;28;20072;-79
2023/10/19 11:36:10;;;;;;;0.50;0.50;;;17.60;90.50;;;;;;5095902;28;20399;-79
2023/10/19 11:38:39;;;;;;;2.03;0.88;;;17.70;90.60;;;;;;5097234;28;20040;-79
2023/10/19 11:41:05;;;;;;;0.73;0.47;;;17.70;90.60;;;;;;5108905;28;20073;-78
2023/10/19 11:43:31;;;;;;;0.50;0.50;;;17.60;90.60;;;;;;5118394;28;20024;-78
2023/10/19 11:45:57;;;;;;;0.52;0.50;;;17.70;90.60;;;;;;5118499;28;20008;-79
2023/10/19 11:48:22;;;;;;;0.32;0.30;;;17.80;90.60;;;;;;5118406;28;20034;-78
2023/10/19 11:50:48;;;;;;;0.82;0.40;;;17.90;90.50;;;;;;5135876;28;20047;-79
2023/10/19 11:53:16;;;;;;;0.65;0.40;;;17.90;90.50;;;;;;5137228;28;20016;-78
2023/10/19 11:55:41;;;;;;;0.28;0.28;;;18.00;90.40;;;;;;5133900;28;20083;-79
2023/10/19 11:58:11;;;;;;;0.50;0.43;;;18.00;90.50;;;;;;5117627;28;20016;-79
2023/10/19 12:00:38;;;;;;;0.60;0.30;;;17.90;90.50;;;;;;5119600;28;20039;-78
2023/10/19 12:03:06;;;;;;;0.95;0.50;;;18.00;90.50;;;;;;5133494;28;20023;-78
2023/10/19 12:05:36;;;;;;;1.52;0.63;;;18.20;90.50;;;;;;5114899;28;20039;-78
2023/10/19 12:08:06;;;;;;;1.00;0.60;;;18.20;90.30;;;;;;5126128;28;20024;-77
2023/10/19 12:10:35;;;;;;;1.17;0.50;;;18.10;90.20;;;;;;5120986;27;20058;-78
2023/10/19 12:13:02;;;;;;;1.80;0.63;;;18.10;90.20;;;;;;5135217;28;20044;-77
2023/10/19 12:15:31;;;;;;;1.02;0.50;;;18.10;90.30;;;;;;5135679;28;20047;-79
2023/10/19 12:17:57;;;;;;;1.08;0.50;;;18.00;90.40;;;;;;5118976;28;20032;-78
2023/10/19 12:20:23;;;;;;;1.15;0.50;;;17.90;90.40;;;;;;5137915;28;20020;-78
2023/10/19 12:22:52;;;;;;;0.90;0.40;;;18.00;90.50;;;;;;5138563;27;20031;-78
2023/10/19 12:25:17;;;;;;;0.90;0.50;;;18.00;90.50;;;;;;5120338;28;20028;-78
2023/10/19 12:27:43;;;;;;;1.55;0.50;;;18.00;90.50;;;;;;5137828;28;20048;-78
2023/10/19 12:30:19;;;;;;;0.70;0.43;;;18.00;90.60;;;;;;5119672;28;20027;-78
2023/10/19 12:32:45;;;;;;;1.00;0.47;;;17.90;90.60;;;;;;5138674;27;20058;-78
2023/10/19 12:35:11;;;;;;;1.23;0.57;;;17.90;90.60;;;;;;5121064;27;20055;-77
2023/10/19 12:37:46;;;;;;;0.88;0.43;;;17.90;90.60;;;;;;5138340;27;20057;-78
2023/10/19 12:42:55;;;;;;;0.52;0.30;;;17.80;90.70;;;;;;5138465;27;20126;-77
2023/10/19 12:45:22;;;;;;;0.57;0.30;;;17.90;90.80;;;;;;5138627;27;20085;-77
2023/10/19 12:47:49;;;;;;;0.30;0.30;;;17.80;90.80;;;;;;5138242;27;20556;-77
2023/10/19 12:50:15;;;;;;;0.65;0.40;;;17.70;90.80;;;;;;5120924;28;20056;-77
2023/10/19 12:52:45;;;;;;;0.70;0.30;;;17.70;90.80;;;;;;5118644;28;20055;-77
2023/10/19 12:55:11;;;;;;;0.57;0.43;;;17.70;90.80;;;;;;5119704;28;20082;-77
2023/10/19 12:57:37;;;;;;;1.95;0.50;;;17.70;90.90;;;;;;5120376;28;20059;-77
2023/10/19 13:00:23;;;;;;;1.48;0.50;;;17.60;90.90;;;;;;5136770;27;20047;-78
2023/10/19 13:02:50;;;;;;;0.82;0.40;;;17.50;90.90;;;;;;5135617;28;20023;-78
2023/10/19 13:05:20;;;;;;;0.55;0.40;;;17.60;91.00;;;;;;5137654;28;20028;-78